sensor_id;sensor_type;location;lat;lon;timestamp;P1;durP1;ratioP1;P2;durP2;ratioP2
35990;SDS011;22064;42.672;23.282;2022-09-09T00:04:39;22.80;;;13.68;;
35990;SDS011;22064;42.672;23.282;2022-09-09T00:09:55;22.95;;;13.50;;
35990;SDS011;22064;42.672;23.282;2022-09-09T00:12:36;19.38;;;12.15;;
35990;SDS011;22064;42.672;23.282;2022-09-09T00:23:35;18.83;;;12.55;;
35990;SDS011;22064;42.672;23.282;2022-09-09T00:31:20;21.25;;;13.75;;
35990;SDS011;22064;42.672;23.282;2022-09-09T00:33:50;22.15;;;13.23;;
35990;SDS011;22064;42.672;23.282;2022-09-09T00:36:18;22.75;;;13.35;;
35990;SDS011;22064;42.672;23.282;2022-09-09T00:38:57;22.88;;;14.07;;
35990;SDS011;22064;42.672;23.282;2022-09-09T00:44:01;21.35;;;14.13;;
35990;SDS011;22064;42.672;23.282;2022-09-09T00:57:34;23.25;;;14.00;;
35990;SDS011;22064;42.672;23.282;2022-09-09T01:09:13;26.20;;;14.98;;
35990;SDS011;22064;42.672;23.282;2022-09-09T01:25:01;23.80;;;15.05;;
35990;SDS011;22064;42.672;23.282;2022-09-09T01:28:00;22.77;;;14.48;;
35990;SDS011;22064;42.672;23.282;2022-09-09T01:30:34;21.98;;;13.77;;
35990;SDS011;22064;42.672;23.282;2022-09-09T01:35:31;21.98;;;14.10;;
35990;SDS011;22064;42.672;23.282;2022-09-09T01:38:03;23.10;;;14.73;;
35990;SDS011;22064;42.672;23.282;2022-09-09T01:40:30;23.08;;;15.05;;
35990;SDS011;22064;42.672;23.282;2022-09-09T01:42:56;24.58;;;14.60;;
35990;SDS011;22064;42.672;23.282;2022-09-09T01:45:23;24.17;;;15.20;;
35990;SDS011;22064;42.672;23.282;2022-09-09T01:47:50;22.80;;;14.18;;
35990;SDS011;22064;42.672;23.282;2022-09-09T01:50:24;25.83;;;14.48;;
35990;SDS011;22064;42.672;23.282;2022-09-09T01:52:52;21.48;;;14.02;;
35990;SDS011;22064;42.672;23.282;2022-09-09T01:55:31;21.05;;;13.82;;
35990;SDS011;22064;42.672;23.282;2022-09-09T01:58:12;23.45;;;13.38;;
35990;SDS011;22064;42.672;23.282;2022-09-09T02:00:51;20.95;;;13.30;;
35990;SDS011;22064;42.672;23.282;2022-09-09T02:03:31;20.88;;;12.88;;
35990;SDS011;22064;42.672;23.282;2022-09-09T02:08:58;24.45;;;13.90;;
35990;SDS011;22064;42.672;23.282;2022-09-09T02:11:27;22.45;;;13.77;;
35990;SDS011;22064;42.672;23.282;2022-09-09T02:14:08;23.63;;;14.48;;
35990;SDS011;22064;42.672;23.282;2022-09-09T02:16:44;20.70;;;13.32;;
35990;SDS011;22064;42.672;23.282;2022-09-09T02:19:23;23.15;;;15.23;;
35990;SDS011;22064;42.672;23.282;2022-09-09T02:22:07;26.67;;;15.00;;
35990;SDS011;22064;42.672;23.282;2022-09-09T02:24:35;23.17;;;15.68;;
35990;SDS011;22064;42.672;23.282;2022-09-09T02:27:24;24.45;;;15.32;;
35990;SDS011;22064;42.672;23.282;2022-09-09T02:29:51;24.25;;;15.85;;
35990;SDS011;22064;42.672;23.282;2022-09-09T02:32:27;25.23;;;16.63;;
35990;SDS011;22064;42.672;23.282;2022-09-09T02:34:58;23.80;;;15.90;;
35990;SDS011;22064;42.672;23.282;2022-09-09T02:37:30;25.55;;;15.52;;
35990;SDS011;22064;42.672;23.282;2022-09-09T02:40:01;24.25;;;15.38;;
35990;SDS011;22064;42.672;23.282;2022-09-09T02:42:29;27.08;;;16.08;;
35990;SDS011;22064;42.672;23.282;2022-09-09T02:44:56;25.52;;;16.00;;
35990;SDS011;22064;42.672;23.282;2022-09-09T02:50:04;22.90;;;15.80;;
35990;SDS011;22064;42.672;23.282;2022-09-09T02:58:02;22.85;;;14.73;;
35990;SDS011;22064;42.672;23.282;2022-09-09T03:00:35;24.08;;;14.80;;
35990;SDS011;22064;42.672;23.282;2022-09-09T03:03:02;24.33;;;15.50;;
35990;SDS011;22064;42.672;23.282;2022-09-09T03:05:30;22.88;;;14.63;;
35990;SDS011;22064;42.672;23.282;2022-09-09T03:07:57;25.40;;;16.00;;
35990;SDS011;22064;42.672;23.282;2022-09-09T03:10:24;22.27;;;14.77;;
35990;SDS011;22064;42.672;23.282;2022-09-09T03:12:49;23.67;;;15.68;;
35990;SDS011;22064;42.672;23.282;2022-09-09T03:15:16;27.80;;;16.55;;
35990;SDS011;22064;42.672;23.282;2022-09-09T03:17:42;24.80;;;16.00;;
35990;SDS011;22064;42.672;23.282;2022-09-09T03:20:08;24.08;;;15.90;;
35990;SDS011;22064;42.672;23.282;2022-09-09T03:22:36;23.08;;;14.93;;
35990;SDS011;22064;42.672;23.282;2022-09-09T03:25:02;24.55;;;15.77;;
35990;SDS011;22064;42.672;23.282;2022-09-09T03:27:29;29.92;;;15.70;;
35990;SDS011;22064;42.672;23.282;2022-09-09T03:29:56;28.00;;;16.05;;
35990;SDS011;22064;42.672;23.282;2022-09-09T03:32:24;26.92;;;16.05;;
35990;SDS011;22064;42.672;23.282;2022-09-09T03:34:52;26.88;;;15.20;;
35990;SDS011;22064;42.672;23.282;2022-09-09T03:37:18;23.75;;;15.23;;
35990;SDS011;22064;42.672;23.282;2022-09-09T03:39:46;23.42;;;15.15;;
35990;SDS011;22064;42.672;23.282;2022-09-09T03:42:14;25.88;;;16.05;;
35990;SDS011;22064;42.672;23.282;2022-09-09T03:44:48;24.10;;;15.60;;
35990;SDS011;22064;42.672;23.282;2022-09-09T03:47:16;23.63;;;15.00;;
35990;SDS011;22064;42.672;23.282;2022-09-09T03:49:43;26.23;;;16.25;;
35990;SDS011;22064;42.672;23.282;2022-09-09T03:52:10;27.55;;;16.27;;
35990;SDS011;22064;42.672;23.282;2022-09-09T03:54:37;25.50;;;15.25;;
35990;SDS011;22064;42.672;23.282;2022-09-09T03:57:04;26.98;;;16.58;;
35990;SDS011;22064;42.672;23.282;2022-09-09T03:59:30;28.20;;;17.35;;
35990;SDS011;22064;42.672;23.282;2022-09-09T04:01:56;26.77;;;17.33;;
35990;SDS011;22064;42.672;23.282;2022-09-09T04:04:24;28.75;;;16.65;;
35990;SDS011;22064;42.672;23.282;2022-09-09T04:06:52;25.50;;;16.65;;
35990;SDS011;22064;42.672;23.282;2022-09-09T04:09:18;26.05;;;16.83;;
35990;SDS011;22064;42.672;23.282;2022-09-09T04:11:43;26.75;;;16.33;;
35990;SDS011;22064;42.672;23.282;2022-09-09T04:14:09;25.48;;;16.73;;
35990;SDS011;22064;42.672;23.282;2022-09-09T04:16:35;26.60;;;16.80;;
35990;SDS011;22064;42.672;23.282;2022-09-09T04:19:03;28.75;;;17.65;;
35990;SDS011;22064;42.672;23.282;2022-09-09T04:21:29;27.63;;;16.70;;
35990;SDS011;22064;42.672;23.282;2022-09-09T04:23:56;26.98;;;17.30;;
35990;SDS011;22064;42.672;23.282;2022-09-09T04:26:22;26.27;;;15.70;;
35990;SDS011;22064;42.672;23.282;2022-09-09T04:28:47;25.90;;;15.77;;
35990;SDS011;22064;42.672;23.282;2022-09-09T04:31:18;23.52;;;15.57;;
35990;SDS011;22064;42.672;23.282;2022-09-09T04:33:50;26.70;;;16.35;;
35990;SDS011;22064;42.672;23.282;2022-09-09T04:36:16;27.63;;;17.08;;
35990;SDS011;22064;42.672;23.282;2022-09-09T04:38:48;34.53;;;16.55;;
35990;SDS011;22064;42.672;23.282;2022-09-09T04:41:14;30.95;;;18.45;;
35990;SDS011;22064;42.672;23.282;2022-09-09T04:43:43;27.20;;;17.07;;
35990;SDS011;22064;42.672;23.282;2022-09-09T04:46:10;26.42;;;16.85;;
35990;SDS011;22064;42.672;23.282;2022-09-09T04:48:36;25.33;;;15.90;;
35990;SDS011;22064;42.672;23.282;2022-09-09T04:51:04;26.52;;;16.63;;
35990;SDS011;22064;42.672;23.282;2022-09-09T04:53:32;27.02;;;15.98;;
35990;SDS011;22064;42.672;23.282;2022-09-09T04:56:05;26.77;;;17.15;;
35990;SDS011;22064;42.672;23.282;2022-09-09T04:58:40;24.77;;;15.18;;
35990;SDS011;22064;42.672;23.282;2022-09-09T05:01:12;30.30;;;16.75;;
35990;SDS011;22064;42.672;23.282;2022-09-09T05:03:43;29.33;;;16.90;;
35990;SDS011;22064;42.672;23.282;2022-09-09T05:06:17;27.05;;;15.70;;
35990;SDS011;22064;42.672;23.282;2022-09-09T05:08:46;31.02;;;16.55;;
35990;SDS011;22064;42.672;23.282;2022-09-09T05:11:20;33.53;;;17.40;;
35990;SDS011;22064;42.672;23.282;2022-09-09T05:13:49;30.80;;;17.17;;
35990;SDS011;22064;42.672;23.282;2022-09-09T05:16:16;29.17;;;16.48;;
35990;SDS011;22064;42.672;23.282;2022-09-09T05:18:43;28.00;;;15.73;;
35990;SDS011;22064;42.672;23.282;2022-09-09T05:21:10;24.75;;;16.63;;
35990;SDS011;22064;42.672;23.282;2022-09-09T05:23:37;27.45;;;16.23;;
35990;SDS011;22064;42.672;23.282;2022-09-09T05:26:03;25.02;;;15.95;;
35990;SDS011;22064;42.672;23.282;2022-09-09T05:28:30;26.60;;;15.98;;
35990;SDS011;22064;42.672;23.282;2022-09-09T05:30:59;26.30;;;16.38;;
35990;SDS011;22064;42.672;23.282;2022-09-09T05:33:29;24.98;;;16.10;;
35990;SDS011;22064;42.672;23.282;2022-09-09T05:35:56;24.67;;;16.27;;
35990;SDS011;22064;42.672;23.282;2022-09-09T05:38:28;26.80;;;16.50;;
35990;SDS011;22064;42.672;23.282;2022-09-09T05:40:55;22.25;;;15.60;;
35990;SDS011;22064;42.672;23.282;2022-09-09T05:43:22;25.08;;;15.70;;
35990;SDS011;22064;42.672;23.282;2022-09-09T05:45:58;23.05;;;15.95;;
35990;SDS011;22064;42.672;23.282;2022-09-09T05:48:30;25.42;;;16.40;;
35990;SDS011;22064;42.672;23.282;2022-09-09T05:51:01;26.67;;;16.75;;
35990;SDS011;22064;42.672;23.282;2022-09-09T05:53:28;31.35;;;17.55;;
35990;SDS011;22064;42.672;23.282;2022-09-09T05:56:09;30.63;;;17.38;;
35990;SDS011;22064;42.672;23.282;2022-09-09T05:58:37;26.55;;;16.33;;
35990;SDS011;22064;42.672;23.282;2022-09-09T06:01:06;28.20;;;17.13;;
35990;SDS011;22064;42.672;23.282;2022-09-09T06:03:36;27.27;;;17.08;;
35990;SDS011;22064;42.672;23.282;2022-09-09T06:06:03;33.13;;;18.63;;
35990;SDS011;22064;42.672;23.282;2022-09-09T06:08:31;29.33;;;17.80;;
35990;SDS011;22064;42.672;23.282;2022-09-09T06:11:02;30.45;;;18.38;;
35990;SDS011;22064;42.672;23.282;2022-09-09T06:13:32;32.25;;;18.95;;
35990;SDS011;22064;42.672;23.282;2022-09-09T06:15:57;27.53;;;18.20;;
35990;SDS011;22064;42.672;23.282;2022-09-09T06:18:24;28.52;;;18.63;;
35990;SDS011;22064;42.672;23.282;2022-09-09T06:21:01;29.05;;;18.52;;
35990;SDS011;22064;42.672;23.282;2022-09-09T06:23:30;30.20;;;17.00;;
35990;SDS011;22064;42.672;23.282;2022-09-09T06:28:32;28.77;;;16.08;;
35990;SDS011;22064;42.672;23.282;2022-09-09T06:31:02;28.38;;;16.67;;
35990;SDS011;22064;42.672;23.282;2022-09-09T06:33:31;33.92;;;16.40;;
35990;SDS011;22064;42.672;23.282;2022-09-09T06:36:00;28.83;;;16.95;;
35990;SDS011;22064;42.672;23.282;2022-09-09T06:38:29;26.30;;;17.87;;
35990;SDS011;22064;42.672;23.282;2022-09-09T06:40:55;27.65;;;17.67;;
35990;SDS011;22064;42.672;23.282;2022-09-09T06:43:23;28.52;;;18.65;;
35990;SDS011;22064;42.672;23.282;2022-09-09T06:48:23;28.85;;;17.30;;
35990;SDS011;22064;42.672;23.282;2022-09-09T06:50:52;25.83;;;17.48;;
35990;SDS011;22064;42.672;23.282;2022-09-09T06:53:47;27.60;;;17.67;;
35990;SDS011;22064;42.672;23.282;2022-09-09T06:58:52;25.38;;;17.27;;
35990;SDS011;22064;42.672;23.282;2022-09-09T07:01:28;24.98;;;16.08;;
35990;SDS011;22064;42.672;23.282;2022-09-09T07:03:58;31.42;;;17.27;;
35990;SDS011;22064;42.672;23.282;2022-09-09T07:06:32;28.15;;;15.57;;
35990;SDS011;22064;42.672;23.282;2022-09-09T07:09:04;29.08;;;16.48;;
35990;SDS011;22064;42.672;23.282;2022-09-09T07:11:32;30.83;;;17.17;;
35990;SDS011;22064;42.672;23.282;2022-09-09T07:14:07;26.77;;;16.27;;
35990;SDS011;22064;42.672;23.282;2022-09-09T07:16:34;24.17;;;16.23;;
35990;SDS011;22064;42.672;23.282;2022-09-09T07:19:03;28.43;;;16.00;;
35990;SDS011;22064;42.672;23.282;2022-09-09T07:21:30;28.58;;;16.20;;
35990;SDS011;22064;42.672;23.282;2022-09-09T07:23:58;23.60;;;14.48;;
35990;SDS011;22064;42.672;23.282;2022-09-09T07:26:26;23.60;;;13.93;;
35990;SDS011;22064;42.672;23.282;2022-09-09T07:28:54;21.58;;;13.77;;
35990;SDS011;22064;42.672;23.282;2022-09-09T07:31:26;21.92;;;14.13;;
35990;SDS011;22064;42.672;23.282;2022-09-09T07:33:56;21.92;;;13.57;;
35990;SDS011;22064;42.672;23.282;2022-09-09T07:36:23;24.70;;;12.73;;
35990;SDS011;22064;42.672;23.282;2022-09-09T07:38:53;21.70;;;12.63;;
35990;SDS011;22064;42.672;23.282;2022-09-09T07:41:22;25.42;;;12.68;;
35990;SDS011;22064;42.672;23.282;2022-09-09T07:43:50;20.05;;;12.35;;
35990;SDS011;22064;42.672;23.282;2022-09-09T07:46:20;23.27;;;11.82;;
35990;SDS011;22064;42.672;23.282;2022-09-09T07:48:48;20.30;;;11.98;;
35990;SDS011;22064;42.672;23.282;2022-09-09T07:51:18;20.15;;;12.02;;
35990;SDS011;22064;42.672;23.282;2022-09-09T07:53:51;21.98;;;13.10;;
35990;SDS011;22064;42.672;23.282;2022-09-09T07:56:18;21.63;;;12.57;;
35990;SDS011;22064;42.672;23.282;2022-09-09T07:58:49;20.42;;;11.98;;
35990;SDS011;22064;42.672;23.282;2022-09-09T08:03:52;21.75;;;12.48;;
35990;SDS011;22064;42.672;23.282;2022-09-09T08:06:25;22.48;;;12.77;;
35990;SDS011;22064;42.672;23.282;2022-09-09T08:08:53;23.27;;;12.23;;
35990;SDS011;22064;42.672;23.282;2022-09-09T08:11:22;20.25;;;11.55;;
35990;SDS011;22064;42.672;23.282;2022-09-09T08:13:49;20.13;;;11.65;;
35990;SDS011;22064;42.672;23.282;2022-09-09T08:16:17;20.45;;;11.43;;
35990;SDS011;22064;42.672;23.282;2022-09-09T08:18:51;20.95;;;10.45;;
35990;SDS011;22064;42.672;23.282;2022-09-09T08:21:19;18.30;;;10.23;;
35990;SDS011;22064;42.672;23.282;2022-09-09T08:23:47;19.60;;;10.85;;
35990;SDS011;22064;42.672;23.282;2022-09-09T08:26:15;20.00;;;10.90;;
35990;SDS011;22064;42.672;23.282;2022-09-09T08:28:48;16.98;;;9.75;;
35990;SDS011;22064;42.672;23.282;2022-09-09T08:31:19;18.27;;;10.05;;
35990;SDS011;22064;42.672;23.282;2022-09-09T08:33:47;17.05;;;9.57;;
35990;SDS011;22064;42.672;23.282;2022-09-09T08:36:14;16.63;;;9.15;;
35990;SDS011;22064;42.672;23.282;2022-09-09T08:38:52;19.13;;;9.43;;
35990;SDS011;22064;42.672;23.282;2022-09-09T08:44:39;17.17;;;9.38;;
35990;SDS011;22064;42.672;23.282;2022-09-09T08:55:45;16.88;;;9.60;;
35990;SDS011;22064;42.672;23.282;2022-09-09T08:58:13;16.67;;;8.85;;
35990;SDS011;22064;42.672;23.282;2022-09-09T09:00:45;14.15;;;8.27;;
35990;SDS011;22064;42.672;23.282;2022-09-09T09:03:28;19.30;;;8.85;;
35990;SDS011;22064;42.672;23.282;2022-09-09T09:11:55;12.13;;;7.25;;
35990;SDS011;22064;42.672;23.282;2022-09-09T09:14:30;19.05;;;7.57;;
35990;SDS011;22064;42.672;23.282;2022-09-09T09:19:35;17.42;;;7.95;;
35990;SDS011;22064;42.672;23.282;2022-09-09T09:24:41;13.55;;;8.23;;
35990;SDS011;22064;42.672;23.282;2022-09-09T09:27:52;14.82;;;8.05;;
35990;SDS011;22064;42.672;23.282;2022-09-09T09:30:39;28.50;;;14.10;;
35990;SDS011;22064;42.672;23.282;2022-09-09T09:33:19;36.67;;;18.02;;
35990;SDS011;22064;42.672;23.282;2022-09-09T09:35:48;44.67;;;22.23;;
35990;SDS011;22064;42.672;23.282;2022-09-09T09:38:19;14.95;;;7.80;;
35990;SDS011;22064;42.672;23.282;2022-09-09T09:40:53;18.08;;;7.72;;
35990;SDS011;22064;42.672;23.282;2022-09-09T09:43:27;12.52;;;7.13;;
35990;SDS011;22064;42.672;23.282;2022-09-09T09:46:00;14.20;;;7.32;;
35990;SDS011;22064;42.672;23.282;2022-09-09T09:48:30;18.27;;;8.88;;
35990;SDS011;22064;42.672;23.282;2022-09-09T09:50:57;33.90;;;13.55;;
35990;SDS011;22064;42.672;23.282;2022-09-09T09:53:27;28.83;;;11.30;;
35990;SDS011;22064;42.672;23.282;2022-09-09T09:58:31;40.60;;;17.52;;
35990;SDS011;22064;42.672;23.282;2022-09-09T10:01:00;27.33;;;12.30;;
35990;SDS011;22064;42.672;23.282;2022-09-09T10:03:32;16.48;;;9.00;;
35990;SDS011;22064;42.672;23.282;2022-09-09T10:06:03;26.08;;;12.48;;
35990;SDS011;22064;42.672;23.282;2022-09-09T10:08:29;21.85;;;10.45;;
35990;SDS011;22064;42.672;23.282;2022-09-09T10:13:58;17.33;;;8.55;;
35990;SDS011;22064;42.672;23.282;2022-09-09T10:19:08;15.20;;;7.80;;
35990;SDS011;22064;42.672;23.282;2022-09-09T10:24:31;16.70;;;8.30;;
35990;SDS011;22064;42.672;23.282;2022-09-09T10:30:18;15.23;;;7.68;;
35990;SDS011;22064;42.672;23.282;2022-09-09T10:32:50;12.63;;;7.97;;
35990;SDS011;22064;42.672;23.282;2022-09-09T10:35:33;16.42;;;8.10;;
35990;SDS011;22064;42.672;23.282;2022-09-09T10:41:16;13.57;;;8.48;;
35990;SDS011;22064;42.672;23.282;2022-09-09T10:55:16;17.88;;;9.65;;
35990;SDS011;22064;42.672;23.282;2022-09-09T10:57:45;17.80;;;9.68;;
35990;SDS011;22064;42.672;23.282;2022-09-09T11:00:17;17.40;;;9.93;;
35990;SDS011;22064;42.672;23.282;2022-09-09T11:02:46;20.38;;;9.20;;
35990;SDS011;22064;42.672;23.282;2022-09-09T11:05:20;15.93;;;9.35;;
35990;SDS011;22064;42.672;23.282;2022-09-09T11:07:59;17.63;;;9.45;;
35990;SDS011;22064;42.672;23.282;2022-09-09T11:13:09;18.45;;;9.93;;
35990;SDS011;22064;42.672;23.282;2022-09-09T11:15:46;22.42;;;10.48;;
35990;SDS011;22064;42.672;23.282;2022-09-09T11:18:19;19.15;;;9.48;;
35990;SDS011;22064;42.672;23.282;2022-09-09T11:20:47;18.02;;;9.38;;
35990;SDS011;22064;42.672;23.282;2022-09-09T11:23:18;20.40;;;9.75;;
35990;SDS011;22064;42.672;23.282;2022-09-09T11:25:52;18.80;;;10.27;;
35990;SDS011;22064;42.672;23.282;2022-09-09T11:36:22;34.30;;;10.00;;
35990;SDS011;22064;42.672;23.282;2022-09-09T11:38:50;18.65;;;10.15;;
35990;SDS011;22064;42.672;23.282;2022-09-09T11:41:18;19.15;;;10.15;;
35990;SDS011;22064;42.672;23.282;2022-09-09T11:46:12;19.50;;;9.75;;
35990;SDS011;22064;42.672;23.282;2022-09-09T11:48:44;20.60;;;9.40;;
35990;SDS011;22064;42.672;23.282;2022-09-09T11:53:56;15.90;;;8.80;;
35990;SDS011;22064;42.672;23.282;2022-09-09T11:59:06;20.77;;;9.25;;
35990;SDS011;22064;42.672;23.282;2022-09-09T12:01:44;17.77;;;9.15;;
35990;SDS011;22064;42.672;23.282;2022-09-09T12:12:28;15.20;;;8.63;;
35990;SDS011;22064;42.672;23.282;2022-09-09T12:17:44;15.73;;;8.50;;
35990;SDS011;22064;42.672;23.282;2022-09-09T12:20:13;17.70;;;8.10;;
35990;SDS011;22064;42.672;23.282;2022-09-09T12:25:35;16.48;;;8.63;;
35990;SDS011;22064;42.672;23.282;2022-09-09T12:28:40;18.30;;;9.02;;
35990;SDS011;22064;42.672;23.282;2022-09-09T12:31:24;20.15;;;8.93;;
35990;SDS011;22064;42.672;23.282;2022-09-09T12:37:06;16.65;;;8.70;;
35990;SDS011;22064;42.672;23.282;2022-09-09T12:42:26;15.13;;;6.45;;
35990;SDS011;22064;42.672;23.282;2022-09-09T12:44:53;14.20;;;6.50;;
35990;SDS011;22064;42.672;23.282;2022-09-09T12:47:22;14.55;;;6.72;;
35990;SDS011;22064;42.672;23.282;2022-09-09T12:49:54;18.58;;;7.82;;
35990;SDS011;22064;42.672;23.282;2022-09-09T12:55:04;15.43;;;7.35;;
35990;SDS011;22064;42.672;23.282;2022-09-09T12:57:37;14.98;;;6.57;;
35990;SDS011;22064;42.672;23.282;2022-09-09T13:00:17;14.55;;;7.15;;
35990;SDS011;22064;42.672;23.282;2022-09-09T13:02:50;11.15;;;6.25;;
35990;SDS011;22064;42.672;23.282;2022-09-09T13:05:31;15.50;;;5.97;;
35990;SDS011;22064;42.672;23.282;2022-09-09T13:08:06;11.55;;;6.50;;
35990;SDS011;22064;42.672;23.282;2022-09-09T13:13:35;12.05;;;6.60;;
35990;SDS011;22064;42.672;23.282;2022-09-09T13:16:03;13.57;;;6.82;;
35990;SDS011;22064;42.672;23.282;2022-09-09T13:18:37;16.48;;;7.28;;
35990;SDS011;22064;42.672;23.282;2022-09-09T13:21:06;14.02;;;7.10;;
35990;SDS011;22064;42.672;23.282;2022-09-09T13:23:33;18.13;;;8.07;;
35990;SDS011;22064;42.672;23.282;2022-09-09T13:26:02;16.25;;;8.95;;
35990;SDS011;22064;42.672;23.282;2022-09-09T13:28:30;18.35;;;8.90;;
35990;SDS011;22064;42.672;23.282;2022-09-09T13:30:56;17.15;;;9.40;;
35990;SDS011;22064;42.672;23.282;2022-09-09T13:33:35;20.88;;;9.65;;
35990;SDS011;22064;42.672;23.282;2022-09-09T13:36:07;18.38;;;9.02;;
35990;SDS011;22064;42.672;23.282;2022-09-09T13:38:58;16.25;;;8.40;;
35990;SDS011;22064;42.672;23.282;2022-09-09T13:41:25;18.23;;;9.25;;
35990;SDS011;22064;42.672;23.282;2022-09-09T13:44:20;17.55;;;8.82;;
35990;SDS011;22064;42.672;23.282;2022-09-09T13:46:59;17.05;;;9.00;;
35990;SDS011;22064;42.672;23.282;2022-09-09T13:49:28;16.75;;;8.50;;
35990;SDS011;22064;42.672;23.282;2022-09-09T13:52:05;16.98;;;8.30;;
35990;SDS011;22064;42.672;23.282;2022-09-09T13:54:35;18.73;;;8.90;;
35990;SDS011;22064;42.672;23.282;2022-09-09T13:57:00;17.90;;;8.52;;
35990;SDS011;22064;42.672;23.282;2022-09-09T13:59:26;22.40;;;8.88;;
35990;SDS011;22064;42.672;23.282;2022-09-09T14:01:52;16.17;;;8.88;;
35990;SDS011;22064;42.672;23.282;2022-09-09T14:04:18;22.10;;;8.77;;
35990;SDS011;22064;42.672;23.282;2022-09-09T14:06:47;17.58;;;8.75;;
35990;SDS011;22064;42.672;23.282;2022-09-09T14:09:15;16.38;;;7.68;;
35990;SDS011;22064;42.672;23.282;2022-09-09T14:11:42;17.63;;;8.05;;
35990;SDS011;22064;42.672;23.282;2022-09-09T14:14:09;16.15;;;7.53;;
35990;SDS011;22064;42.672;23.282;2022-09-09T14:16:34;18.23;;;7.30;;
35990;SDS011;22064;42.672;23.282;2022-09-09T14:19:00;16.98;;;7.85;;
35990;SDS011;22064;42.672;23.282;2022-09-09T14:21:27;17.40;;;7.85;;
35990;SDS011;22064;42.672;23.282;2022-09-09T14:23:53;14.32;;;7.45;;
35990;SDS011;22064;42.672;23.282;2022-09-09T14:26:22;16.40;;;8.48;;
35990;SDS011;22064;42.672;23.282;2022-09-09T14:28:48;19.05;;;8.40;;
35990;SDS011;22064;42.672;23.282;2022-09-09T14:31:15;16.92;;;8.52;;
35990;SDS011;22064;42.672;23.282;2022-09-09T14:33:42;17.13;;;7.97;;
35990;SDS011;22064;42.672;23.282;2022-09-09T14:36:09;15.07;;;8.15;;
35990;SDS011;22064;42.672;23.282;2022-09-09T14:38:36;16.58;;;8.38;;
35990;SDS011;22064;42.672;23.282;2022-09-09T14:41:08;18.40;;;8.27;;
35990;SDS011;22064;42.672;23.282;2022-09-09T14:43:37;21.63;;;8.93;;
35990;SDS011;22064;42.672;23.282;2022-09-09T14:46:10;19.17;;;8.88;;
35990;SDS011;22064;42.672;23.282;2022-09-09T14:48:37;18.38;;;8.82;;
35990;SDS011;22064;42.672;23.282;2022-09-09T14:53:38;14.85;;;8.43;;
35990;SDS011;22064;42.672;23.282;2022-09-09T14:58:32;18.30;;;8.50;;
35990;SDS011;22064;42.672;23.282;2022-09-09T15:01:02;20.52;;;9.02;;
35990;SDS011;22064;42.672;23.282;2022-09-09T15:03:31;17.65;;;8.18;;
35990;SDS011;22064;42.672;23.282;2022-09-09T15:05:57;20.75;;;8.90;;
35990;SDS011;22064;42.672;23.282;2022-09-09T15:08:23;21.83;;;8.90;;
35990;SDS011;22064;42.672;23.282;2022-09-09T15:10:50;15.80;;;8.55;;
35990;SDS011;22064;42.672;23.282;2022-09-09T15:13:15;18.25;;;7.97;;
35990;SDS011;22064;42.672;23.282;2022-09-09T15:15:44;18.17;;;8.40;;
35990;SDS011;22064;42.672;23.282;2022-09-09T15:18:09;17.25;;;8.40;;
35990;SDS011;22064;42.672;23.282;2022-09-09T15:20:35;16.95;;;8.88;;
35990;SDS011;22064;42.672;23.282;2022-09-09T15:23:02;18.73;;;8.32;;
35990;SDS011;22064;42.672;23.282;2022-09-09T15:25:28;19.58;;;8.57;;
35990;SDS011;22064;42.672;23.282;2022-09-09T15:27:54;19.50;;;9.13;;
35990;SDS011;22064;42.672;23.282;2022-09-09T15:30:21;21.77;;;9.00;;
35990;SDS011;22064;42.672;23.282;2022-09-09T15:32:46;19.17;;;8.77;;
35990;SDS011;22064;42.672;23.282;2022-09-09T15:35:12;18.52;;;7.65;;
35990;SDS011;22064;42.672;23.282;2022-09-09T15:37:38;19.95;;;8.00;;
35990;SDS011;22064;42.672;23.282;2022-09-09T15:40:03;15.85;;;8.10;;
35990;SDS011;22064;42.672;23.282;2022-09-09T15:42:29;16.88;;;8.85;;
35990;SDS011;22064;42.672;23.282;2022-09-09T15:44:55;20.50;;;8.48;;
35990;SDS011;22064;42.672;23.282;2022-09-09T15:47:20;22.30;;;10.52;;
35990;SDS011;22064;42.672;23.282;2022-09-09T15:49:46;23.63;;;9.30;;
35990;SDS011;22064;42.672;23.282;2022-09-09T15:52:12;20.80;;;8.60;;
35990;SDS011;22064;42.672;23.282;2022-09-09T15:54:38;16.83;;;9.40;;
35990;SDS011;22064;42.672;23.282;2022-09-09T15:57:05;18.23;;;8.80;;
35990;SDS011;22064;42.672;23.282;2022-09-09T15:59:33;19.70;;;9.73;;
35990;SDS011;22064;42.672;23.282;2022-09-09T16:01:59;20.08;;;8.60;;
35990;SDS011;22064;42.672;23.282;2022-09-09T16:04:28;18.52;;;9.23;;
35990;SDS011;22064;42.672;23.282;2022-09-09T16:06:55;20.83;;;9.45;;
35990;SDS011;22064;42.672;23.282;2022-09-09T16:09:23;18.73;;;8.40;;
35990;SDS011;22064;42.672;23.282;2022-09-09T16:11:49;18.50;;;8.90;;
35990;SDS011;22064;42.672;23.282;2022-09-09T16:14:17;22.08;;;10.82;;
35990;SDS011;22064;42.672;23.282;2022-09-09T16:16:42;18.45;;;9.75;;
35990;SDS011;22064;42.672;23.282;2022-09-09T16:19:09;18.27;;;9.30;;
35990;SDS011;22064;42.672;23.282;2022-09-09T16:21:44;20.33;;;9.48;;
35990;SDS011;22064;42.672;23.282;2022-09-09T16:24:13;19.10;;;10.93;;
35990;SDS011;22064;42.672;23.282;2022-09-09T16:26:42;20.85;;;10.23;;
35990;SDS011;22064;42.672;23.282;2022-09-09T16:31:36;24.15;;;12.57;;
35990;SDS011;22064;42.672;23.282;2022-09-09T16:34:02;23.52;;;10.98;;
35990;SDS011;22064;42.672;23.282;2022-09-09T16:36:29;21.63;;;10.75;;
35990;SDS011;22064;42.672;23.282;2022-09-09T16:39:01;24.05;;;10.63;;
35990;SDS011;22064;42.672;23.282;2022-09-09T16:41:30;21.73;;;10.40;;
35990;SDS011;22064;42.672;23.282;2022-09-09T16:43:57;23.17;;;11.43;;
35990;SDS011;22064;42.672;23.282;2022-09-09T16:46:25;22.38;;;11.20;;
35990;SDS011;22064;42.672;23.282;2022-09-09T16:48:52;23.08;;;11.35;;
35990;SDS011;22064;42.672;23.282;2022-09-09T16:51:23;22.33;;;11.00;;
35990;SDS011;22064;42.672;23.282;2022-09-09T16:53:53;22.33;;;10.30;;
35990;SDS011;22064;42.672;23.282;2022-09-09T16:56:20;23.30;;;11.50;;
35990;SDS011;22064;42.672;23.282;2022-09-09T16:58:53;22.75;;;10.95;;
35990;SDS011;22064;42.672;23.282;2022-09-09T17:01:23;23.40;;;12.45;;
35990;SDS011;22064;42.672;23.282;2022-09-09T17:03:55;20.08;;;12.00;;
35990;SDS011;22064;42.672;23.282;2022-09-09T17:06:22;24.73;;;12.43;;
35990;SDS011;22064;42.672;23.282;2022-09-09T17:08:53;26.80;;;12.68;;
35990;SDS011;22064;42.672;23.282;2022-09-09T17:11:26;21.92;;;12.32;;
35990;SDS011;22064;42.672;23.282;2022-09-09T17:13:53;24.75;;;12.52;;
35990;SDS011;22064;42.672;23.282;2022-09-09T17:16:21;23.42;;;12.32;;
35990;SDS011;22064;42.672;23.282;2022-09-09T17:18:49;21.65;;;11.82;;
35990;SDS011;22064;42.672;23.282;2022-09-09T17:21:17;26.15;;;12.18;;
35990;SDS011;22064;42.672;23.282;2022-09-09T17:23:45;21.53;;;11.40;;
35990;SDS011;22064;42.672;23.282;2022-09-09T17:26:12;23.38;;;11.63;;
35990;SDS011;22064;42.672;23.282;2022-09-09T17:28:41;21.08;;;11.60;;
35990;SDS011;22064;42.672;23.282;2022-09-09T17:31:09;22.55;;;12.40;;
35990;SDS011;22064;42.672;23.282;2022-09-09T17:33:37;26.45;;;13.10;;